Pagina principale
METAR-TAF:

METAR-TAF

Aeroporti :

Amman, Giordania

latitudine: 31-59N, longitudine: 035-59E, altezza: 767 m

Osservazione

Il bollettino è stato emesso 29 minuti fa, alle 19:00 UTC
Vento 8 kt da ovest/nord-ovest
Temperature 23°C
Umidità 65%
Pressione 1011 hPa
Visibilità: 6000 m

METAR: OJAM 141900Z 29008KT 6000 NSC 23/16 Q1011 NOSIG

Ora: 22:29 (19:29 UTC)

Previsione

Il bollettino è stato emesso 1 ora e 29 minuti fa, alle 18:00 UTC
Previsione valida dal 14 alle 18 UTC al 15 alle 24 UTC
Vento 12 kt da ovest/nord-ovest
Visibilità: 5000 m
Poco nuvoloso ad un'altezza di 3000 ft
foschia
Temporaneamente
dal 15 alle 12 UTC al 15 alle 17 UTC
Vento 18 kt da nord-ovest
Visibilità: 4000 m
Scaccia polvere alto

TAF: OJAM 141800Z 1418/1524 30012KT 5000 HZ FEW030 TEMPO 1512/1517 31018KT 4000 BLDU

Osservazioni e previsioni meteorologiche di più di 4000 aeroporti (messaggi METAR e TAF).

Le stazioni disponibili sono rappresentate dai dischi gialli e rossi sulla carta.

Puntare il mouse per vedere il nome della stazione.

Clicca sopra per visualizzare le osservazioni e previsioni meteorologiche.

Per cambiare la mappa : fare clic sui pulsanti verdi con una croce nera per ingrandire, il pulsante verde con un trattino per diminuire, o sulla freccia verde per le mappe adiacenti.


METAR-TAF: